Time;durP1;ratioP1;P1;durP2;ratioP2;P2;SDS_P1;SDS_P2;PMS_P1;PMS_P2;Temp;Humidity;BMP_temperature;BMP_pressure;BME280_temperature;BME280_humidity;BME280_pressure;Samples;Min_cycle;Max_cycle;Signal;HPM_P1;HPM_P2
2024/01/22 00:00:58;;;;;;;;;;;4.40;99.90;;;;;;5117242;28;19961;-77
2024/01/22 00:03:23;;;;;;;;;;;4.50;99.90;;;;;;5118052;27;19904;-76
2024/01/22 00:05:49;;;;;;;;;;;4.50;99.90;;;;;;5118287;28;19915;-78
2024/01/22 00:08:14;;;;;;;;;;;4.50;99.90;;;;;;5118122;28;19910;-76
2024/01/22 00:10:40;;;;;;;;;;;4.50;99.90;;;;;;5118083;28;19904;-77
2024/01/22 00:13:05;;;;;;;;;;;4.60;99.90;;;;;;5116880;28;19904;-78
2024/01/22 00:15:32;;;;;;;;;;;4.60;99.90;;;;;;5117737;28;19903;-77
2024/01/22 00:17:57;;;;;;;;;;;4.60;99.90;;;;;;5116228;28;19908;-77
2024/01/22 00:20:23;;;;;;;;;;;4.60;99.90;;;;;;5116695;28;19957;-76
2024/01/22 00:22:49;;;;;;;;;;;4.60;99.90;;;;;;5116500;28;19903;-77
2024/01/22 00:25:14;;;;;;;;;;;4.60;99.90;;;;;;5116737;28;20382;-77
2024/01/22 00:27:40;;;;;;;;;;;4.60;99.90;;;;;;5117493;28;19903;-77
2024/01/22 00:30:06;;;;;;;;;;;4.60;99.90;;;;;;5117481;28;19914;-79
2024/01/22 00:32:31;;;;;;;;;;;4.60;99.90;;;;;;5116071;28;19908;-76
2024/01/22 00:34:57;;;;;;;;;;;4.60;99.90;;;;;;5117852;28;19915;-78
2024/01/22 00:37:22;;;;;;;;;;;4.50;99.90;;;;;;5117117;28;19937;-77
2024/01/22 00:39:48;;;;;;;;;;;4.60;99.90;;;;;;5116159;28;19914;-77
2024/01/22 00:42:13;;;;;;;;;;;4.50;99.90;;;;;;5115975;28;19914;-77
2024/01/22 00:44:39;;;;;;;;;;;4.40;99.90;;;;;;5117215;28;19939;-78
2024/01/22 00:47:05;;;;;;;;;;;4.40;99.90;;;;;;5115381;28;19904;-77
2024/01/22 00:49:30;;;;;;;;;;;4.30;99.90;;;;;;5104877;28;19910;-77
2024/01/22 00:51:56;;;;;;;;;;;4.30;99.90;;;;;;5115618;28;19908;-77
2024/01/22 00:54:21;;;;;;;;;;;4.20;99.90;;;;;;5117467;28;19904;-77
2024/01/22 00:56:46;;;;;;;;;;;4.10;99.90;;;;;;5117304;28;19922;-77
2024/01/22 00:59:12;;;;;;;;;;;3.90;99.90;;;;;;5115964;28;19918;-77
2024/01/22 01:01:38;;;;;;;;;;;3.80;99.90;;;;;;5116609;28;19907;-77
2024/01/22 01:04:03;;;;;;;;;;;3.70;99.90;;;;;;5102772;28;20493;-77
2024/01/22 01:06:29;;;;;;;;;;;3.50;99.90;;;;;;5117134;28;19986;-77
2024/01/22 01:08:54;;;;;;;;;;;3.40;99.90;;;;;;5116935;28;19903;-77
2024/01/22 01:11:20;;;;;;;;;;;3.20;99.90;;;;;;5115529;28;19904;-77
2024/01/22 01:13:45;;;;;;;;;;;3.10;99.90;;;;;;5116790;28;19914;-77
2024/01/22 01:16:11;;;;;;;;;;;3.00;99.90;;;;;;5116827;28;20006;-77
2024/01/22 01:18:36;;;;;;;;;;;2.90;99.90;;;;;;5117196;28;19903;-77
2024/01/22 01:21:02;;;;;;;;;;;2.90;99.90;;;;;;5115423;28;19903;-77
2024/01/22 01:23:27;;;;;;;;;;;2.80;99.90;;;;;;5115619;28;19904;-76
2024/01/22 01:25:53;;;;;;;;;;;2.80;99.90;;;;;;5115260;28;19930;-77
2024/01/22 01:28:18;;;;;;;;;;;2.70;99.90;;;;;;5100820;28;20069;-77
2024/01/22 01:30:44;;;;;;;;;;;2.70;99.90;;;;;;5108743;28;19954;-77
2024/01/22 01:33:09;;;;;;;;;;;2.80;99.90;;;;;;5103067;28;20056;-76
2024/01/22 01:35:35;;;;;;;;;;;2.90;99.90;;;;;;5116958;28;19953;-77
2024/01/22 01:38:00;;;;;;;;;;;3.10;99.90;;;;;;5103008;28;19911;-77
2024/01/22 01:40:26;;;;;;;;;;;3.20;99.90;;;;;;5115078;28;20288;-77
2024/01/22 01:42:53;;;;;;;;;;;3.30;99.90;;;;;;5116411;28;19904;-78
2024/01/22 01:45:19;;;;;;;;;;;3.30;99.90;;;;;;5116277;27;19997;-78
2024/01/22 01:47:49;;;;;;;;;;;3.30;99.90;;;;;;5115375;28;19947;-77
2024/01/22 01:50:16;;;;;;;;;;;3.50;99.90;;;;;;5115266;28;19930;-77
2024/01/22 01:52:42;;;;;;;;;;;3.50;99.90;;;;;;5115236;28;19911;-77
2024/01/22 01:55:08;;;;;;;;;;;3.60;99.90;;;;;;5114809;28;19911;-78
2024/01/22 01:57:36;;;;;;;;;;;3.60;99.90;;;;;;5114474;28;20509;-77
2024/01/22 02:00:04;;;;;;;;;;;3.70;99.90;;;;;;5114256;28;19903;-78
2024/01/22 02:02:30;;;;;;;;;;;3.60;99.90;;;;;;5115248;28;19907;-78
2024/01/22 02:04:55;;;;;;;;;;;3.60;99.90;;;;;;5114805;28;19931;-78
2024/01/22 02:07:21;;;;;;;;;;;3.50;99.90;;;;;;5116538;28;19904;-78
2024/01/22 02:09:50;;;;;;;;;;;3.50;99.90;;;;;;5116127;28;19903;-78
2024/01/22 02:12:16;;;;;;;;;;;3.40;99.90;;;;;;5116528;28;20291;-78
2024/01/22 02:14:42;;;;;;;;;;;3.30;99.90;;;;;;5114774;28;19912;-78
2024/01/22 02:17:07;;;;;;;;;;;3.30;99.90;;;;;;5116048;27;19934;-77
2024/01/22 02:19:33;;;;;;;;;;;3.20;99.90;;;;;;5116350;28;19925;-78
2024/01/22 02:21:58;;;;;;;;;;;3.10;99.90;;;;;;5116089;28;19903;-78
2024/01/22 02:24:24;;;;;;;;;;;3.10;99.90;;;;;;5116177;28;19926;-78
2024/01/22 02:26:50;;;;;;;;;;;3.00;99.90;;;;;;5116275;28;19990;-78
2024/01/22 02:29:16;;;;;;;;;;;3.00;99.90;;;;;;5115432;28;20390;-78
2024/01/22 02:31:42;;;;;;;;;;;3.00;99.90;;;;;;5116144;28;19903;-78
2024/01/22 02:34:08;;;;;;;;;;;2.90;99.90;;;;;;5114824;28;20363;-78
2024/01/22 02:36:33;;;;;;;;;;;2.80;99.90;;;;;;5114692;28;19908;-77
2024/01/22 02:38:59;;;;;;;;;;;2.80;99.90;;;;;;5115820;28;19903;-78
2024/01/22 02:41:24;;;;;;;;;;;2.70;99.90;;;;;;5116025;28;20368;-78
2024/01/22 02:43:50;;;;;;;;;;;2.70;99.90;;;;;;5115681;28;19939;-78
2024/01/22 02:46:16;;;;;;;;;;;2.60;99.90;;;;;;5115863;28;19907;-78
2024/01/22 02:48:42;;;;;;;;;;;2.50;99.90;;;;;;5114495;28;19907;-77
2024/01/22 02:51:10;;;;;;;;;;;2.40;99.90;;;;;;5104180;28;19904;-78
2024/01/22 02:53:36;;;;;;;;;;;2.40;99.90;;;;;;5115954;27;19904;-78
2024/01/22 02:56:02;;;;;;;;;;;2.40;99.90;;;;;;5115863;28;19926;-78
2024/01/22 02:58:28;;;;;;;;;;;2.40;99.90;;;;;;5114329;28;19903;-78
2024/01/22 03:00:53;;;;;;;;;;;2.40;99.90;;;;;;5114815;28;20349;-78
2024/01/22 03:03:19;;;;;;;;;;;2.30;99.90;;;;;;5115940;28;19907;-78
2024/01/22 03:05:44;;;;;;;;;;;2.40;99.90;;;;;;5114906;28;19904;-78
2024/01/22 03:08:10;;;;;;;;;;;2.30;99.90;;;;;;5115618;28;20387;-78
2024/01/22 03:10:35;;;;;;;;;;;2.30;99.90;;;;;;5117567;28;20387;-78
2024/01/22 03:13:01;;;;;;;;;;;2.30;99.90;;;;;;5119380;28;20395;-78
2024/01/22 03:15:27;;;;;;;;;;;2.20;99.90;;;;;;5118168;28;20494;-79
2024/01/22 03:17:52;;;;;;;;;;;2.20;99.90;;;;;;5119261;28;19916;-79
2024/01/22 03:20:18;;;;;;;;;;;2.10;99.90;;;;;;5119509;28;19903;-78
2024/01/22 03:22:43;;;;;;;;;;;2.10;99.90;;;;;;5117850;28;19951;-79
2024/01/22 03:25:12;;;;;;;;;;;2.10;99.90;;;;;;5119367;28;19904;-78
2024/01/22 03:27:37;;;;;;;;;;;2.00;99.90;;;;;;5119043;28;20740;-78
2024/01/22 03:30:03;;;;;;;;;;;2.00;99.90;;;;;;5117797;28;19903;-78
2024/01/22 03:32:28;;;;;;;;;;;2.00;99.90;;;;;;5119108;28;19904;-78
2024/01/22 03:34:54;;;;;;;;;;;2.00;99.90;;;;;;5118967;28;20288;-78
2024/01/22 03:37:19;;;;;;;;;;;2.00;99.90;;;;;;5118887;28;19990;-77
2024/01/22 03:39:45;;;;;;;;;;;1.90;99.90;;;;;;5119043;28;19994;-77
2024/01/22 03:42:11;;;;;;;;;;;2.00;99.90;;;;;;5119141;28;19986;-78
2024/01/22 03:44:37;;;;;;;;;;;2.00;99.90;;;;;;5118605;28;19952;-77
2024/01/22 03:47:03;;;;;;;;;;;2.10;99.90;;;;;;5118398;27;19986;-77
2024/01/22 03:49:30;;;;;;;;;;;2.20;99.90;;;;;;5118905;28;19998;-78
2024/01/22 03:51:55;;;;;;;;;;;2.20;99.90;;;;;;5118560;28;19904;-78
2024/01/22 03:54:21;;;;;;;;;;;2.20;99.90;;;;;;5114799;28;19911;-78
2024/01/22 03:56:46;;;;;;;;;;;2.20;99.90;;;;;;5117841;28;19956;-78
2024/01/22 03:59:12;;;;;;;;;;;2.10;99.90;;;;;;5118240;28;19911;-78
2024/01/22 04:01:37;;;;;;;;;;;2.10;99.90;;;;;;5118800;28;19904;-78
2024/01/22 04:04:03;;;;;;;;;;;2.10;99.90;;;;;;5104666;28;20284;-78
2024/01/22 04:06:29;;;;;;;;;;;2.10;99.90;;;;;;5116108;28;19943;-78
2024/01/22 04:08:54;;;;;;;;;;;2.10;99.90;;;;;;5117361;28;19910;-78
2024/01/22 04:11:20;;;;;;;;;;;2.20;99.90;;;;;;5118387;28;20359;-78
2024/01/22 04:13:45;;;;;;;;;;;2.10;99.90;;;;;;5118320;28;19943;-78
2024/01/22 04:16:12;;;;;;;;;;;2.10;99.90;;;;;;5118236;28;19907;-78
2024/01/22 04:18:39;;;;;;;;;;;2.10;99.90;;;;;;5118431;28;19907;-78
2024/01/22 04:21:04;;;;;;;;;;;2.00;99.90;;;;;;5117063;28;20397;-78
2024/01/22 04:23:30;;;;;;;;;;;2.00;99.90;;;;;;5117047;28;20353;-77
2024/01/22 04:25:55;;;;;;;;;;;2.00;99.90;;;;;;5117560;28;20390;-77
2024/01/22 04:28:21;;;;;;;;;;;2.00;99.90;;;;;;5105271;28;19943;-77
2024/01/22 04:30:46;;;;;;;;;;;2.00;99.90;;;;;;5116669;28;19943;-77
2024/01/22 04:33:13;;;;;;;;;;;1.90;99.90;;;;;;5116860;28;19947;-77
2024/01/22 04:35:38;;;;;;;;;;;2.00;99.90;;;;;;5116242;28;19903;-77
2024/01/22 04:38:04;;;;;;;;;;;2.00;99.90;;;;;;5117881;28;19929;-77
2024/01/22 04:40:29;;;;;;;;;;;2.10;99.90;;;;;;5117568;28;19977;-77
2024/01/22 04:42:55;;;;;;;;;;;2.20;99.90;;;;;;5117841;28;19907;-77
2024/01/22 04:45:21;;;;;;;;;;;2.20;99.90;;;;;;5115900;28;19911;-77
2024/01/22 04:47:46;;;;;;;;;;;2.30;99.90;;;;;;5107917;28;20488;-77
2024/01/22 04:50:12;;;;;;;;;;;2.50;99.90;;;;;;5115528;28;19904;-77
2024/01/22 04:52:37;;;;;;;;;;;2.50;99.90;;;;;;5117392;28;19903;-77
2024/01/22 04:55:03;;;;;;;;;;;2.50;99.90;;;;;;5116205;28;19910;-77
2024/01/22 04:57:28;;;;;;;;;;;2.50;99.90;;;;;;5115882;28;19970;-77
2024/01/22 04:59:54;;;;;;;;;;;2.50;99.90;;;;;;5115774;28;19903;-77
2024/01/22 05:02:27;;;;;;;;;;;2.40;99.90;;;;;;5098787;28;19922;-77
2024/01/22 05:05:01;;;;;;;;;;;2.40;99.90;;;;;;5110245;28;19904;-77
2024/01/22 05:07:27;;;;;;;;;;;2.40;99.90;;;;;;5115610;28;19903;-77
2024/01/22 05:09:54;;;;;;;;;;;2.40;99.90;;;;;;5116983;28;20464;-77
2024/01/22 05:12:19;;;;;;;;;;;2.30;99.90;;;;;;5115495;28;20749;-77
2024/01/22 05:14:45;;;;;;;;;;;2.30;99.90;;;;;;5115117;28;19912;-77
2024/01/22 05:17:10;;;;;;;;;;;2.30;99.90;;;;;;5115662;28;19977;-78
2024/01/22 05:19:36;;;;;;;;;;;2.20;99.90;;;;;;5117114;28;20383;-77
2024/01/22 05:22:01;;;;;;;;;;;2.20;99.90;;;;;;5116694;28;20271;-77
2024/01/22 05:24:27;;;;;;;;;;;2.20;99.90;;;;;;5116784;28;19990;-77
2024/01/22 05:26:53;;;;;;;;;;;2.20;99.90;;;;;;5117061;28;20403;-77
2024/01/22 05:29:19;;;;;;;;;;;2.20;99.90;;;;;;5116652;28;19926;-77
2024/01/22 05:31:44;;;;;;;;;;;2.20;99.90;;;;;;5116319;28;19970;-77
2024/01/22 05:34:10;;;;;;;;;;;2.30;99.90;;;;;;5116674;28;19904;-77
2024/01/22 05:36:37;;;;;;;;;;;2.30;99.90;;;;;;5115386;28;20463;-77
2024/01/22 05:39:05;;;;;;;;;;;2.30;99.90;;;;;;5115533;28;19951;-78
2024/01/22 05:41:30;;;;;;;;;;;2.20;99.90;;;;;;5116806;28;19904;-77
2024/01/22 05:43:56;;;;;;;;;;;2.20;99.90;;;;;;5116230;27;19908;-77
2024/01/22 05:46:21;;;;;;;;;;;2.10;99.90;;;;;;5116480;28;19915;-77
2024/01/22 05:48:47;;;;;;;;;;;2.10;99.90;;;;;;5116617;28;19904;-77
2024/01/22 05:51:12;;;;;;;;;;;2.10;99.90;;;;;;5116361;28;19915;-77
2024/01/22 05:53:40;;;;;;;;;;;2.10;99.90;;;;;;5114701;28;19910;-77
2024/01/22 05:56:05;;;;;;;;;;;2.00;99.90;;;;;;5116413;28;19916;-77
2024/01/22 05:58:31;;;;;;;;;;;2.00;99.90;;;;;;5116197;28;19907;-78
2024/01/22 06:00:57;;;;;;;;;;;2.00;99.90;;;;;;5116840;28;19929;-77
2024/01/22 06:03:22;;;;;;;;;;;2.00;99.90;;;;;;5114767;28;19903;-77
2024/01/22 06:05:48;;;;;;;;;;;2.10;99.90;;;;;;5116632;28;19953;-76
2024/01/22 06:08:13;;;;;;;;;;;2.30;99.90;;;;;;5116433;28;19903;-78
2024/01/22 06:10:39;;;;;;;;;;;2.40;99.90;;;;;;5116600;28;19904;-77
2024/01/22 06:13:04;;;;;;;;;;;2.70;99.90;;;;;;5114535;28;19912;-77
2024/01/22 06:15:30;;;;;;;;;;;3.00;99.90;;;;;;5116044;28;19915;-76
2024/01/22 06:17:55;;;;;;;;;;;3.20;99.90;;;;;;5114367;28;19914;-77
2024/01/22 06:20:21;;;;;;;;;;;3.30;99.90;;;;;;5114835;28;19904;-76
2024/01/22 06:22:46;;;;;;;;;;;3.50;99.90;;;;;;5116097;28;19918;-75
2024/01/22 06:25:12;;;;;;;;;;;3.60;99.90;;;;;;5115034;28;19914;-77
2024/01/22 06:27:37;;;;;;;;;;;3.70;99.90;;;;;;5114623;28;19962;-76
2024/01/22 06:30:03;;;;;;;;;;;3.90;99.90;;;;;;5116123;28;19908;-77
2024/01/22 06:32:29;;;;;;;;;;;4.00;99.90;;;;;;5114304;28;19990;-77
2024/01/22 06:34:55;;;;;;;;;;;4.10;99.90;;;;;;5115985;28;19939;-77
2024/01/22 06:37:26;;;;;;;;;;;4.10;99.90;;;;;;5114566;28;19908;-76
2024/01/22 06:39:52;;;;;;;;;;;4.10;99.90;;;;;;5116010;28;19908;-77
2024/01/22 06:42:18;;;;;;;;;;;4.10;99.90;;;;;;5115514;28;19994;-77
2024/01/22 06:44:43;;;;;;;;;;;4.10;99.90;;;;;;5117637;28;19907;-77
2024/01/22 06:47:09;;;;;;;;;;;4.00;99.90;;;;;;5119314;27;19904;-77
2024/01/22 06:49:34;;;;;;;;;;;3.90;99.90;;;;;;5118457;28;19953;-77
2024/01/22 06:52:00;;;;;;;;;;;3.90;99.90;;;;;;5117961;28;19903;-77
2024/01/22 06:54:26;;;;;;;;;;;3.80;99.90;;;;;;5118418;28;19946;-77
2024/01/22 06:56:51;;;;;;;;;;;3.70;99.90;;;;;;5119253;28;19916;-77
2024/01/22 06:59:17;;;;;;;;;;;3.60;99.90;;;;;;5119495;28;20720;-77
2024/01/22 07:01:42;;;;;;;;;;;3.60;99.90;;;;;;5119801;27;19962;-85
2024/01/22 07:04:08;;;;;;;;;;;3.60;99.90;;;;;;5108457;28;19937;-84
2024/01/22 07:06:35;;;;;;;;;;;3.70;99.90;;;;;;5106949;28;20474;-87
2024/01/22 07:09:00;;;;;;;;;;;3.60;99.90;;;;;;5102253;28;20406;-86
2024/01/22 07:11:26;;;;;;;;;;;3.60;99.90;;;;;;5102216;28;20338;-84
2024/01/22 07:13:52;;;;;;;;;;;3.50;99.90;;;;;;5114815;28;19904;-82
2024/01/22 07:16:17;;;;;;;;;;;3.60;99.90;;;;;;5115291;28;19926;-81
2024/01/22 07:18:43;;;;;;;;;;;3.80;99.90;;;;;;5108399;28;19908;-80
2024/01/22 07:21:08;;;;;;;;;;;3.90;99.90;;;;;;5108004;28;19915;-84
2024/01/22 07:23:34;;;;;;;;;;;4.00;99.90;;;;;;5114449;28;19907;-82
2024/01/22 07:25:59;;;;;;;;;;;4.20;99.90;;;;;;5115157;28;19907;-85
2024/01/22 07:28:25;;;;;;;;;;;4.20;99.90;;;;;;5114599;28;19908;-81
2024/01/22 07:30:51;;;;;;;;;;;4.10;99.90;;;;;;5113366;28;19908;-84
2024/01/22 07:33:16;;;;;;;;;;;4.10;99.90;;;;;;5115064;28;20458;-85
2024/01/22 07:35:42;;;;;;;;;;;4.10;99.90;;;;;;5114618;28;19907;-84
2024/01/22 07:38:07;;;;;;;;;;;4.00;99.90;;;;;;5110270;28;19976;-84
2024/01/22 07:40:33;;;;;;;;;;;4.00;99.90;;;;;;5099031;28;19904;-84
2024/01/22 07:42:58;;;;;;;;;;;3.90;99.90;;;;;;5114866;28;19930;-86
2024/01/22 07:45:24;;;;;;;;;;;3.80;99.90;;;;;;5100689;28;19919;-86
2024/01/22 07:47:50;;;;;;;;;;;3.80;99.90;;;;;;5114636;28;20278;-83
2024/01/22 07:50:16;;;;;;;;;;;3.70;99.90;;;;;;5116790;28;19914;-84
2024/01/22 07:52:42;;;;;;;;;;;3.80;99.90;;;;;;5113955;28;20002;-84
2024/01/22 07:55:08;;;;;;;;;;;3.80;99.90;;;;;;5113385;28;19938;-83
2024/01/22 07:57:33;;;;;;;;;;;3.90;99.90;;;;;;5101850;28;20304;-86
2024/01/22 07:59:59;;;;;;;;;;;4.00;99.90;;;;;;5113740;28;19908;-85
2024/01/22 08:02:24;;;;;;;;;;;4.10;99.90;;;;;;5113714;28;19908;-83
2024/01/22 08:04:50;;;;;;;;;;;4.10;99.90;;;;;;5101915;28;20002;-85
2024/01/22 08:07:19;;;;;;;;;;;4.10;99.90;;;;;;5114264;28;19918;-85
2024/01/22 08:09:45;;;;;;;;;;;4.20;99.90;;;;;;5104720;28;20451;-85
2024/01/22 08:12:11;;;;;;;;;;;4.20;99.90;;;;;;5108728;28;19907;-85
2024/01/22 08:14:36;;;;;;;;;;;4.30;99.90;;;;;;5113861;28;19942;-86
2024/01/22 08:17:03;;;;;;;;;;;4.30;99.90;;;;;;5107373;28;20344;-85
2024/01/22 08:19:30;;;;;;;;;;;4.30;99.90;;;;;;5103952;28;19915;-86
2024/01/22 08:21:55;;;;;;;;;;;4.40;99.90;;;;;;5108467;28;20276;-85
2024/01/22 08:24:22;;;;;;;;;;;4.60;99.90;;;;;;5112044;28;19961;-86
2024/01/22 08:26:48;;;;;;;;;;;4.70;99.90;;;;;;5105249;28;19927;-82
2024/01/22 08:29:14;;;;;;;;;;;4.90;99.90;;;;;;5109504;28;19915;-85
2024/01/22 08:31:39;;;;;;;;;;;5.20;99.90;;;;;;5113653;28;19912;-87
2024/01/22 08:34:05;;;;;;;;;;;5.60;99.90;;;;;;5112938;28;20657;-86
2024/01/22 08:36:31;;;;;;;;;;;5.90;99.90;;;;;;5111145;28;20009;-83
2024/01/22 08:38:56;;;;;;;;;;;6.10;99.90;;;;;;5115592;28;20032;-82
2024/01/22 08:41:26;;;;;;;;;;;6.40;99.90;;;;;;5107455;28;20288;-84
2024/01/22 08:43:52;;;;;;;;;;;6.60;99.90;;;;;;5114635;28;19907;-82
2024/01/22 08:46:18;;;;;;;;;;;6.80;99.90;;;;;;5113933;28;19927;-83
2024/01/22 08:48:44;;;;;;;;;;;7.10;99.90;;;;;;5112417;28;19904;-81
2024/01/22 08:51:09;;;;;;;;;;;7.30;99.90;;;;;;5113376;28;19965;-82
2024/01/22 08:53:35;;;;;;;;;;;7.50;99.90;;;;;;5113012;28;19908;-83
2024/01/22 08:56:00;;;;;;;;;;;7.60;99.90;;;;;;5114990;28;19965;-86
2024/01/22 08:58:26;;;;;;;;;;;7.70;99.90;;;;;;5115708;28;19957;-83
2024/01/22 09:00:51;;;;;;;;;;;7.80;99.90;;;;;;5111584;28;19980;-81
2024/01/22 09:03:18;;;;;;;;;;;7.80;99.90;;;;;;5116985;28;19919;-81
2024/01/22 09:05:44;;;;;;;;;;;7.90;99.90;;;;;;5108909;28;19912;-80
2024/01/22 09:08:09;;;;;;;;;;;7.90;99.90;;;;;;5112707;28;19904;-85
2024/01/22 09:10:35;;;;;;;;;;;8.00;99.90;;;;;;5113406;28;19911;-80
2024/01/22 09:13:00;;;;;;;;;;;8.10;99.90;;;;;;5116279;28;19910;-81
2024/01/22 09:15:26;;;;;;;;;;;8.30;99.90;;;;;;5112971;28;19923;-87
2024/01/22 09:17:51;;;;;;;;;;;8.40;99.90;;;;;;5116698;28;19911;-85
2024/01/22 09:20:17;;;;;;;;;;;8.40;99.90;;;;;;5114533;28;19918;-86
2024/01/22 09:22:43;;;;;;;;;;;8.50;99.90;;;;;;5116448;28;19914;-82
2024/01/22 09:25:08;;;;;;;;;;;8.50;99.90;;;;;;5110958;28;20284;-81
2024/01/22 09:27:34;;;;;;;;;;;8.60;99.90;;;;;;5114650;28;19994;-82
2024/01/22 09:30:00;;;;;;;;;;;8.60;99.90;;;;;;5111069;28;19926;-79
2024/01/22 09:32:25;;;;;;;;;;;8.70;99.90;;;;;;5115743;28;19903;-80
2024/01/22 09:34:51;;;;;;;;;;;8.60;99.90;;;;;;5108820;28;19904;-83
2024/01/22 09:37:17;;;;;;;;;;;8.60;99.90;;;;;;5114068;28;19927;-79
2024/01/22 09:39:44;;;;;;;;;;;8.60;99.90;;;;;;5109892;28;19907;-84
2024/01/22 09:42:10;;;;;;;;;;;8.50;99.90;;;;;;5107379;28;19904;-83
2024/01/22 09:44:36;;;;;;;;;;;8.40;99.90;;;;;;5113709;28;20345;-84
2024/01/22 09:47:02;;;;;;;;;;;8.40;99.90;;;;;;5112609;28;19907;-82
2024/01/22 09:49:28;;;;;;;;;;;8.30;99.90;;;;;;5110240;28;19919;-83
2024/01/22 09:51:53;;;;;;;;;;;8.20;99.90;;;;;;5113368;28;19908;-85
2024/01/22 09:54:20;;;;;;;;;;;8.20;99.90;;;;;;5110488;28;19905;-84
2024/01/22 09:56:54;;;;;;;;;;;8.20;99.90;;;;;;5112488;28;19915;-83
2024/01/22 09:59:28;;;;;;;;;;;8.20;99.90;;;;;;5110671;28;20364;-78
2024/01/22 10:01:54;;;;;;;;;;;8.20;99.90;;;;;;5111067;28;19915;-78
2024/01/22 10:04:20;;;;;;;;;;;8.30;99.90;;;;;;5111483;28;20453;-80
2024/01/22 10:06:48;;;;;;;;;;;8.30;99.90;;;;;;5111248;28;19942;-83
2024/01/22 10:09:15;;;;;;;;;;;8.40;99.90;;;;;;5108885;28;20210;-80
2024/01/22 10:11:41;;;;;;;;;;;8.60;99.90;;;;;;5114352;28;20304;-79
2024/01/22 10:14:07;;;;;;;;;;;8.70;99.90;;;;;;5104675;28;19908;-83
2024/01/22 10:16:33;;;;;;;;;;;9.00;99.90;;;;;;5104784;28;19929;-80
2024/01/22 10:18:59;;;;;;;;;;;9.20;99.90;;;;;;5108506;28;20379;-85
2024/01/22 10:21:25;;;;;;;;;;;9.40;99.90;;;;;;5112471;28;20011;-79
2024/01/22 10:24:01;;;;;;;;;;;9.60;99.90;;;;;;5120145;28;19958;-79
2024/01/22 10:26:27;;;;;;;;;;;9.70;99.90;;;;;;5120129;28;19904;-80
2024/01/22 10:28:53;;;;;;;;;;;9.70;99.90;;;;;;5118455;28;19933;-81
2024/01/22 10:31:19;;;;;;;;;;;9.70;99.90;;;;;;5119755;28;20006;-80
2024/01/22 10:33:45;;;;;;;;;;;9.60;99.90;;;;;;5120310;28;19907;-83
2024/01/22 10:36:18;;;;;;;;;;;9.70;99.90;;;;;;5119010;28;20023;-83
2024/01/22 10:38:47;;;;;;;;;;;9.70;99.90;;;;;;5120140;28;19911;-79
2024/01/22 10:41:16;;;;;;;;;;;9.80;99.90;;;;;;5118330;28;19912;-83
2024/01/22 10:43:42;;;;;;;;;;;10.00;99.90;;;;;;5118533;28;19999;-79
2024/01/22 10:46:10;;;;;;;;;;;10.20;99.90;;;;;;5118573;28;20358;-81
2024/01/22 10:48:36;;;;;;;;;;;10.40;99.90;;;;;;5120169;28;20007;-80
2024/01/22 10:51:02;;;;;;;;;;;10.60;99.90;;;;;;5118701;28;19953;-81
2024/01/22 10:53:28;;;;;;;;;;;10.80;99.90;;;;;;5106222;28;19904;-80
2024/01/22 10:56:19;;;;;;;;;;;11.00;99.90;;;;;;5118111;28;20287;-81
2024/01/22 10:58:45;;;;;;;;;;;11.30;99.90;;;;;;5117168;28;19911;-79
2024/01/22 11:01:18;;;;;;;;;;;11.50;99.90;;;;;;5118396;28;19908;-81
2024/01/22 11:03:45;;;;;;;;;;;11.50;99.90;;;;;;5119540;28;19990;-80
2024/01/22 11:06:11;;;;;;;;;;;11.50;99.90;;;;;;5119566;28;19904;-81
2024/01/22 11:08:37;;;;;;;;;;;11.50;99.90;;;;;;5119185;28;19908;-80
2024/01/22 11:11:02;;;;;;;;;;;11.60;99.90;;;;;;5119668;28;19933;-80
2024/01/22 11:13:28;;;;;;;;;;;11.40;99.90;;;;;;5117988;28;19904;-79
2024/01/22 11:15:54;;;;;;;;;;;11.40;99.90;;;;;;5111362;28;20338;-81
2024/01/22 11:18:20;;;;;;;;;;;11.40;99.90;;;;;;5118366;28;20337;-79
2024/01/22 11:20:45;;;;;;;;;;;11.40;99.90;;;;;;5119577;28;19999;-80
2024/01/22 11:23:15;;;;;;;;;;;11.40;99.90;;;;;;5118881;27;19914;-80
2024/01/22 11:25:40;;;;;;;;;;;11.50;99.90;;;;;;5119297;28;20007;-83
2024/01/22 11:28:09;;;;;;;;;;;11.60;99.90;;;;;;5118879;28;19959;-81
2024/01/22 11:30:34;;;;;;;;;;;11.60;99.90;;;;;;5118252;28;20394;-87
2024/01/22 11:33:00;;;;;;;;;;;11.50;99.90;;;;;;5119120;28;19959;-79
2024/01/22 11:35:37;;;;;;;;;;;11.40;99.90;;;;;;5117826;28;19903;-80
2024/01/22 11:38:03;;;;;;;;;;;11.30;99.90;;;;;;5104685;28;19953;-80
2024/01/22 11:40:48;;;;;;;;;;;11.20;99.90;;;;;;5108451;27;19911;-84
2024/01/22 11:43:17;;;;;;;;;;;11.20;99.90;;;;;;5117492;28;19904;-82
2024/01/22 11:45:43;;;;;;;;;;;11.30;99.90;;;;;;5106444;28;19904;-80
2024/01/22 11:48:16;;;;;;;;;;;11.40;99.90;;;;;;5111919;27;20314;-81
2024/01/22 11:50:42;;;;;;;;;;;11.50;99.90;;;;;;5116438;28;20291;-82
2024/01/22 11:53:07;;;;;;;;;;;11.50;99.90;;;;;;5093654;28;19915;-82
2024/01/22 11:55:33;;;;;;;;;;;11.60;99.90;;;;;;5104442;28;20391;-80
2024/01/22 11:57:58;;;;;;;;;;;11.70;99.90;;;;;;5108366;28;19916;-81
2024/01/22 12:00:24;;;;;;;;;;;11.80;99.90;;;;;;5106731;28;19908;-81
2024/01/22 12:02:51;;;;;;;;;;;11.90;99.90;;;;;;5109104;28;20307;-81
2024/01/22 12:05:19;;;;;;;;;;;11.90;99.90;;;;;;5111722;28;20020;-80
2024/01/22 12:07:45;;;;;;;;;;;11.90;99.90;;;;;;5110085;28;19995;-82
2024/01/22 12:10:27;;;;;;;;;;;12.00;99.90;;;;;;5109370;28;19908;-81
2024/01/22 12:12:57;;;;;;;;;;;12.00;99.90;;;;;;5110865;28;19961;-80
2024/01/22 12:15:24;;;;;;;;;;;12.00;99.90;;;;;;5107909;27;20360;-80
2024/01/22 12:17:50;;;;;;;;;;;12.10;99.90;;;;;;5110989;28;20017;-79
2024/01/22 12:20:18;;;;;;;;;;;12.00;99.90;;;;;;5108802;27;19905;-81
2024/01/22 12:22:43;;;;;;;;;;;12.00;99.90;;;;;;5108796;28;20194;-80
2024/01/22 12:25:11;;;;;;;;;;;12.00;99.90;;;;;;5110508;28;19994;-84
2024/01/22 12:27:37;;;;;;;;;;;12.10;99.90;;;;;;5100614;28;20386;-79
2024/01/22 12:30:04;;;;;;;;;;;12.10;99.90;;;;;;5108083;28;19904;-82
2024/01/22 12:32:30;;;;;;;;;;;12.10;99.90;;;;;;5107581;28;19908;-81
2024/01/22 12:34:56;;;;;;;;;;;12.10;99.90;;;;;;5103642;28;20293;-79
2024/01/22 12:37:23;;;;;;;;;;;12.10;99.90;;;;;;5112027;28;19912;-78
2024/01/22 12:39:49;;;;;;;;;;;12.10;99.90;;;;;;5107079;28;20000;-78
2024/01/22 12:42:18;;;;;;;;;;;12.10;99.90;;;;;;5107806;28;20048;-79
2024/01/22 12:44:58;;;;;;;;;;;12.10;99.90;;;;;;5107628;28;19908;-82
2024/01/22 12:47:24;;;;;;;;;;;12.10;99.90;;;;;;5109416;28;20303;-79
2024/01/22 12:49:49;;;;;;;;;;;12.00;99.90;;;;;;5106429;28;19908;-78
2024/01/22 12:52:15;;;;;;;;;;;12.00;99.90;;;;;;5106899;28;19967;-82
2024/01/22 12:54:41;;;;;;;;;;;11.90;99.90;;;;;;5108090;28;19908;-79
2024/01/22 12:57:06;;;;;;;;;;;11.90;99.90;;;;;;5101910;28;20535;-79
2024/01/22 12:59:31;;;;;;;;;;;11.80;99.90;;;;;;5107654;28;19968;-79
2024/01/22 13:01:57;;;;;;;;;;;11.80;99.90;;;;;;5107324;28;20296;-79
2024/01/22 13:04:22;;;;;;;;;;;11.80;99.90;;;;;;5105789;28;20379;-80
2024/01/22 13:06:48;;;;;;;;;;;11.70;99.90;;;;;;5103143;28;20017;-79
2024/01/22 13:09:13;;;;;;;;;;;11.60;99.90;;;;;;5102527;28;19907;-80
2024/01/22 13:11:39;;;;;;;;;;;11.50;99.90;;;;;;5107674;28;20306;-83
2024/01/22 13:14:04;;;;;;;;;;;11.50;99.90;;;;;;5103474;28;20651;-80
2024/01/22 13:16:30;;;;;;;;;;;11.40;99.90;;;;;;5104441;27;20420;-80
2024/01/22 13:18:56;;;;;;;;;;;11.40;99.90;;;;;;5108441;28;20291;-81
2024/01/22 13:21:21;;;;;;;;;;;11.50;99.90;;;;;;5112819;28;20387;-80
2024/01/22 13:23:47;;;;;;;;;;;11.60;99.90;;;;;;5112434;28;20368;-81
2024/01/22 13:26:12;;;;;;;;;;;11.70;99.90;;;;;;5115134;27;19911;-80
2024/01/22 13:28:38;;;;;;;;;;;11.90;99.90;;;;;;5109904;28;19961;-79
2024/01/22 13:31:03;;;;;;;;;;;11.90;99.90;;;;;;5112955;28;19904;-81
2024/01/22 13:33:29;;;;;;;;;;;11.90;99.90;;;;;;5113414;28;20283;-80
2024/01/22 13:35:54;;;;;;;;;;;11.90;99.90;;;;;;5114477;28;20359;-80
2024/01/22 13:38:20;;;;;;;;;;;11.80;99.90;;;;;;5114127;28;19957;-78
2024/01/22 13:40:45;;;;;;;;;;;11.80;99.90;;;;;;5112479;27;19951;-77
2024/01/22 13:43:11;;;;;;;;;;;11.90;99.90;;;;;;5110635;28;19930;-80
2024/01/22 13:45:36;;;;;;;;;;;12.00;99.90;;;;;;5113757;28;19907;-80
2024/01/22 13:48:02;;;;;;;;;;;12.00;99.90;;;;;;5110580;28;19904;-79
2024/01/22 13:50:28;;;;;;;;;;;12.10;99.90;;;;;;5113305;28;19904;-81
2024/01/22 13:52:53;;;;;;;;;;;12.20;99.90;;;;;;5109435;28;19908;-82
2024/01/22 13:55:19;;;;;;;;;;;12.20;99.90;;;;;;5112028;28;19917;-79
2024/01/22 13:57:44;;;;;;;;;;;12.30;99.90;;;;;;5113722;28;19947;-81
2024/01/22 14:00:10;;;;;;;;;;;12.40;99.90;;;;;;5115527;28;19926;-80
2024/01/22 14:02:35;;;;;;;;;;;12.40;99.90;;;;;;5114630;28;19912;-80
2024/01/22 14:05:02;;;;;;;;;;;12.30;99.90;;;;;;5115239;28;20390;-82
2024/01/22 14:07:28;;;;;;;;;;;12.30;99.90;;;;;;5111755;28;20056;-82
2024/01/22 14:09:53;;;;;;;;;;;12.20;99.90;;;;;;5113518;28;19955;-83
2024/01/22 14:12:19;;;;;;;;;;;12.30;99.90;;;;;;5113873;28;19907;-83
2024/01/22 14:14:44;;;;;;;;;;;12.30;99.90;;;;;;5104625;28;20402;-81
2024/01/22 14:17:12;;;;;;;;;;;12.30;99.90;;;;;;5109508;28;20367;-83
2024/01/22 14:19:37;;;;;;;;;;;12.30;99.90;;;;;;5115658;28;19935;-82